Time;durP1;ratioP1;P1;durP2;ratioP2;P2;SDS_P1;SDS_P2;PMS_P1;PMS_P2;Temp;Humidity;BMP_temperature;BMP_pressure;BME280_temperature;BME280_humidity;BME280_pressure;Samples;Min_cycle;Max_cycle;Signal;HPM_P1;HPM_P2
2021/07/30 00:00:33;;;;;;;26.27;23.97;;;;;;;17.33;100.00;98686.66;2080282;28;20678;-77
2021/07/30 00:01:35;;;;;;;27.63;25.00;;;;;;;17.32;100.00;98681.59;2080392;28;20850;-77
2021/07/30 00:02:35;;;;;;;25.23;23.10;;;;;;;17.30;100.00;98683.88;2080362;28;20231;-77
2021/07/30 00:03:37;;;;;;;26.37;24.07;;;;;;;17.28;100.00;98678.81;2080597;28;20464;-75
2021/07/30 00:04:37;;;;;;;25.80;23.23;;;;;;;17.24;100.00;98684.13;2086369;28;20238;-74
2021/07/30 00:05:39;;;;;;;26.57;23.83;;;;;;;17.22;100.00;98677.53;2088500;28;20468;-76
2021/07/30 00:06:40;;;;;;;27.00;24.50;;;;;;;17.22;100.00;98680.22;2080305;28;20227;-74
2021/07/30 00:07:43;;;;;;;26.87;24.23;;;;;;;17.21;100.00;98687.53;2088599;28;20963;-74
2021/07/30 00:08:43;;;;;;;27.13;24.53;;;;;;;17.20;100.00;98685.16;2089337;28;20305;-74
2021/07/30 00:09:45;;;;;;;28.27;25.47;;;;;;;17.18;100.00;98677.44;2089386;28;20507;-74
2021/07/30 00:10:47;;;;;;;27.23;24.30;;;;;;;17.17;100.00;98685.88;2089252;28;20238;-74
2021/07/30 00:11:48;;;;;;;26.70;24.30;;;;;;;17.11;100.00;98674.56;2088575;28;20473;-77
2021/07/30 00:12:55;;;;;;;26.00;23.53;;;;;;;17.10;100.00;98680.31;2088675;28;20444;-74
2021/07/30 00:13:56;;;;;;;26.33;23.17;;;;;;;17.10;100.00;98680.31;2088139;28;20286;-74
2021/07/30 00:14:59;;;;;;;26.30;23.63;;;;;;;17.08;100.00;98677.19;2080236;28;20538;-74
2021/07/30 00:16:00;;;;;;;27.00;24.47;;;;;;;17.06;100.00;98682.13;2088551;28;20464;-77
2021/07/30 00:17:01;;;;;;;25.63;23.17;;;;;;;17.06;100.00;98676.75;2088496;28;20449;-74
2021/07/30 00:18:02;;;;;;;26.30;23.70;;;;;;;17.06;100.00;98674.06;2088531;28;20677;-76
2021/07/30 00:19:04;;;;;;;25.83;23.43;;;;;;;17.08;100.00;98677.19;2088503;28;20812;-74
2021/07/30 00:20:06;;;;;;;25.23;22.93;;;;;;;17.08;100.00;98679.88;2080308;28;20709;-75
2021/07/30 00:21:07;;;;;;;26.00;23.43;;;;;;;17.08;100.00;98671.78;2088661;28;20438;-74
2021/07/30 00:22:08;;;;;;;26.03;23.43;;;;;;;17.08;100.00;98677.97;2088076;28;20457;-74
2021/07/30 00:23:09;;;;;;;25.77;23.27;;;;;;;17.10;100.00;98680.31;2088510;28;20437;-74
2021/07/30 00:24:10;;;;;;;26.50;23.80;;;;;;;17.10;100.00;98672.22;2088368;28;20317;-75
2021/07/30 00:25:12;;;;;;;25.23;23.03;;;;;;;17.12;100.00;98678.06;2088520;28;20442;-74
2021/07/30 00:26:13;;;;;;;25.33;22.97;;;;;;;17.12;100.00;98673.44;2089364;28;20253;-74
2021/07/30 00:27:14;;;;;;;26.03;23.37;;;;;;;17.13;100.00;98674.22;2089222;28;20449;-74
2021/07/30 00:28:15;;;;;;;26.13;23.37;;;;;;;17.08;100.00;98677.97;2089174;28;20238;-74
2021/07/30 00:29:16;;;;;;;25.17;22.97;;;;;;;17.08;100.00;98674.47;2089227;28;20460;-74
2021/07/30 00:30:19;;;;;;;26.20;23.43;;;;;;;17.07;100.00;98673.69;2088449;28;20280;-74
2021/07/30 00:31:20;;;;;;;26.23;23.50;;;;;;;17.03;100.00;98674.72;2088367;28;20560;-74
2021/07/30 00:32:21;;;;;;;28.53;24.13;;;;;;;17.01;100.00;98679.69;2089191;28;20462;-74
2021/07/30 00:33:22;;;;;;;26.50;23.83;;;;;;;16.99;100.00;98677.34;2088777;28;20537;-72
2021/07/30 00:34:23;;;;;;;26.67;24.07;;;;;;;17.00;100.00;98678.13;2089305;28;20225;-73
2021/07/30 00:35:24;;;;;;;27.90;25.30;;;;;;;16.97;100.00;98673.44;2089188;28;20445;-74
2021/07/30 00:36:25;;;;;;;27.23;24.43;;;;;;;16.94;100.00;98673.00;2088988;28;20230;-74
2021/07/30 00:37:27;;;;;;;25.87;23.47;;;;;;;16.93;100.00;98673.34;2089181;28;20481;-74
2021/07/30 00:38:27;;;;;;;27.13;24.47;;;;;;;16.93;100.00;98681.41;2089045;28;20227;-75
2021/07/30 00:39:29;;;;;;;26.37;23.97;;;;;;;16.90;100.00;98674.81;2089310;28;20446;-76
2021/07/30 00:40:33;;;;;;;26.60;23.93;;;;;;;16.94;100.00;98681.09;2089098;28;20254;-76
2021/07/30 00:41:35;;;;;;;26.00;23.40;;;;;;;16.94;100.00;98680.31;2089198;28;20453;-74
2021/07/30 00:42:36;;;;;;;27.60;23.33;;;;;;;16.93;100.00;98681.41;2088311;28;20873;-76
2021/07/30 00:43:37;;;;;;;26.37;23.97;;;;;;;16.90;100.00;98682.13;2087927;28;20492;-76
2021/07/30 00:44:39;;;;;;;29.23;23.80;;;;;;;16.89;100.00;98673.25;2089057;28;20529;-76
2021/07/30 00:45:41;;;;;;;28.30;25.10;;;;;;;16.86;100.00;98681.28;2089029;28;20218;-76
2021/07/30 00:46:42;;;;;;;27.37;24.57;;;;;;;16.84;100.00;98681.59;2089054;28;20432;-76
2021/07/30 00:47:43;;;;;;;26.30;24.07;;;;;;;16.82;100.00;98675.78;2088254;28;20540;-76
2021/07/30 00:48:45;;;;;;;29.60;25.30;;;;;;;16.81;100.00;98678.81;2080012;28;20446;-76
2021/07/30 00:49:45;;;;;;;27.83;25.23;;;;;;;16.79;100.00;98673.78;2088249;28;20264;-76
2021/07/30 00:50:47;;;;;;;27.83;24.90;;;;;;;16.75;100.00;98675.59;2088290;28;20472;-77
2021/07/30 00:51:48;;;;;;;31.70;24.73;;;;;;;16.76;100.00;98682.53;2089026;28;20704;-74
2021/07/30 00:52:51;;;;;;;26.47;24.07;;;;;;;16.74;100.00;98689.41;2088988;28;20809;-76
2021/07/30 00:53:52;;;;;;;26.53;24.07;;;;;;;16.73;100.00;98685.16;2087824;28;20229;-75
2021/07/30 00:54:53;;;;;;;33.50;25.03;;;;;;;16.70;100.00;98681.25;2079931;28;20972;-76
2021/07/30 00:55:57;;;;;;;26.93;24.30;;;;;;;16.95;100.00;98684.56;2088365;28;20242;-76
2021/07/30 00:56:58;;;;;;;27.27;24.67;;;;;;;16.97;100.00;98682.31;2089071;28;20991;-76
2021/07/30 00:57:59;;;;;;;27.47;24.70;;;;;;;16.98;100.00;98681.19;2088217;28;20449;-76
2021/07/30 00:59:01;;;;;;;26.50;24.10;;;;;;;16.92;100.00;98686.03;2087900;28;20593;-76
2021/07/30 01:00:03;;;;;;;26.93;24.27;;;;;;;16.87;100.00;98680.13;2088812;28;20510;-76
2021/07/30 01:01:07;;;;;;;27.30;24.60;;;;;;;16.81;100.00;98690.38;2088004;28;20464;-74
2021/07/30 01:02:08;;;;;;;26.67;23.83;;;;;;;16.76;100.00;98681.75;2079784;28;20545;-76
2021/07/30 01:03:10;;;;;;;26.70;23.97;;;;;;;16.73;100.00;98687.84;2080156;28;21011;-74
2021/07/30 01:04:12;;;;;;;26.57;24.13;;;;;;;16.68;100.00;98686.16;2087877;28;20235;-76
2021/07/30 01:05:14;;;;;;;26.67;24.27;;;;;;;16.64;100.00;98690.66;2088166;28;20452;-76
2021/07/30 01:06:14;;;;;;;25.57;23.50;;;;;;;16.64;100.00;98679.88;2088928;28;20445;-74
2021/07/30 01:07:16;;;;;;;27.23;24.40;;;;;;;16.63;100.00;98679.09;2088155;28;20481;-77
2021/07/30 01:08:17;;;;;;;26.37;23.77;;;;;;;16.65;100.00;98678.75;2079873;28;20231;-74
2021/07/30 01:09:18;;;;;;;26.30;23.80;;;;;;;16.68;100.00;98680.78;2088179;28;21012;-74
2021/07/30 01:10:19;;;;;;;26.83;24.03;;;;;;;16.64;100.00;98680.66;2088819;28;20237;-74
2021/07/30 01:11:21;;;;;;;26.70;24.30;;;;;;;16.62;100.00;98676.75;2088816;28;20480;-74
2021/07/30 01:12:21;;;;;;;26.93;24.53;;;;;;;16.59;100.00;98683.63;2088424;28;20222;-72
2021/07/30 01:13:23;;;;;;;27.83;24.37;;;;;;;16.57;100.00;98680.47;2088238;28;20457;-74
2021/07/30 01:14:24;;;;;;;27.10;24.40;;;;;;;16.56;100.00;98683.53;2088079;28;20250;-74
2021/07/30 01:15:26;;;;;;;27.40;24.23;;;;;;;16.56;100.00;98683.53;2087954;28;20450;-74
2021/07/30 01:16:28;;;;;;;27.23;24.17;;;;;;;16.54;100.00;98681.19;2088376;28;21678;-74
2021/07/30 01:17:29;;;;;;;26.30;24.00;;;;;;;16.54;100.00;98683.88;2088887;28;20442;-74
2021/07/30 01:18:30;;;;;;;26.53;24.03;;;;;;;16.54;100.00;98683.09;2087975;28;20446;-74
2021/07/30 01:19:31;;;;;;;25.90;23.33;;;;;;;16.54;100.00;98685.78;2087970;28;20951;-74
2021/07/30 01:20:35;;;;;;;25.80;23.47;;;;;;;16.54;100.00;98680.41;2088102;28;20587;-74
2021/07/30 01:21:39;;;;;;;26.27;23.90;;;;;;;16.54;100.00;98681.19;2088768;28;20552;-77
2021/07/30 01:22:48;;;;;;;27.20;24.60;;;;;;;16.56;100.00;98683.53;2088452;28;20791;-76
2021/07/30 01:23:50;;;;;;;26.17;23.67;;;;;;;16.56;100.00;98686.22;2088855;28;20491;-74
2021/07/30 01:24:51;;;;;;;26.97;24.27;;;;;;;16.56;100.00;98683.53;2088826;28;20488;-75
2021/07/30 01:25:53;;;;;;;27.37;24.40;;;;;;;16.55;100.00;98679.28;2088400;28;20461;-74
2021/07/30 01:26:54;;;;;;;27.07;24.40;;;;;;;16.56;100.00;98670.06;2088705;28;20999;-75
2021/07/30 01:27:56;;;;;;;25.73;23.50;;;;;;;16.58;100.00;98673.19;2088222;28;20881;-74
2021/07/30 01:28:57;;;;;;;27.10;24.50;;;;;;;16.57;100.00;98674.31;2088175;28;20219;-74
2021/07/30 01:29:58;;;;;;;25.87;23.27;;;;;;;16.55;100.00;98668.50;2088824;28;20525;-74
2021/07/30 01:31:00;;;;;;;26.67;23.97;;;;;;;16.50;100.00;98669.50;2087984;28;20708;-75
2021/07/30 01:32:01;;;;;;;26.17;23.77;;;;;;;16.48;100.00;98676.38;2088053;28;20963;-75
2021/07/30 01:33:02;;;;;;;26.37;23.80;;;;;;;16.47;100.00;98677.50;2088816;28;20442;-75
2021/07/30 01:34:03;;;;;;;26.13;23.60;;;;;;;16.43;100.00;98674.72;2088766;28;20465;-75
2021/07/30 01:35:04;;;;;;;26.27;23.77;;;;;;;16.43;100.00;98673.94;2088612;28;20223;-75
2021/07/30 01:36:06;;;;;;;27.73;24.83;;;;;;;16.40;100.00;98676.19;2087877;28;21062;-75
2021/07/30 01:37:07;;;;;;;26.00;23.33;;;;;;;16.38;100.00;98678.44;2087222;28;20494;-74
2021/07/30 01:38:10;;;;;;;27.00;24.20;;;;;;;16.36;100.00;98678.00;2087954;28;20461;-75
2021/07/30 01:39:11;;;;;;;27.07;24.43;;;;;;;16.38;100.00;98678.44;2079838;28;20222;-75
2021/07/30 01:40:14;;;;;;;27.13;24.37;;;;;;;16.36;100.00;98678.00;2087924;28;20963;-75
2021/07/30 01:41:15;;;;;;;27.43;24.60;;;;;;;16.37;100.00;98676.09;2088691;28;20226;-75
2021/07/30 01:42:17;;;;;;;27.83;23.63;;;;;;;16.37;100.00;98671.50;2088725;28;20438;-75
2021/07/30 01:43:17;;;;;;;26.83;24.00;;;;;;;16.36;100.00;98675.31;2087836;28;20226;-75
2021/07/30 01:44:19;;;;;;;26.60;24.20;;;;;;;16.39;100.00;98677.31;2088004;28;20441;-74
2021/07/30 01:45:19;;;;;;;26.63;23.97;;;;;;;16.45;100.00;98677.84;2088717;28;20309;-75
2021/07/30 01:46:21;;;;;;;28.03;25.40;;;;;;;16.45;100.00;98679.78;2087918;28;20450;-75
2021/07/30 01:47:22;;;;;;;28.90;26.10;;;;;;;16.49;100.00;98672.56;2087739;28;20695;-73
2021/07/30 01:48:23;;;;;;;28.80;25.87;;;;;;;16.47;100.00;98672.91;2087805;28;20524;-74
2021/07/30 01:49:24;;;;;;;28.87;25.97;;;;;;;16.47;100.00;98669.44;2087997;28;20247;-74
2021/07/30 01:50:25;;;;;;;27.53;25.03;;;;;;;16.44;100.00;98665.53;2088595;28;20449;-74
2021/07/30 01:51:26;;;;;;;27.80;25.30;;;;;;;16.45;100.00;98666.31;2088391;28;20590;-75
2021/07/30 01:52:28;;;;;;;27.50;24.70;;;;;;;16.42;100.00;98667.78;2088646;28;20450;-74
2021/07/30 01:53:30;;;;;;;27.90;25.20;;;;;;;16.44;100.00;98675.50;2087690;28;20215;-74
2021/07/30 01:54:31;;;;;;;28.97;25.97;;;;;;;16.48;100.00;98679.06;2087891;28;20916;-75
2021/07/30 01:55:32;;;;;;;27.57;24.60;;;;;;;16.49;100.00;98669.88;2088651;28;20457;-75
2021/07/30 01:56:34;;;;;;;26.70;24.47;;;;;;;16.48;100.00;98671.00;2088643;28;20457;-76
2021/07/30 01:57:34;;;;;;;26.87;24.47;;;;;;;16.47;100.00;98669.44;2088674;28;20309;-75
2021/07/30 01:58:36;;;;;;;27.20;24.67;;;;;;;16.47;100.00;98669.44;2087807;28;20449;-75
2021/07/30 01:59:40;;;;;;;26.67;24.17;;;;;;;16.50;100.00;98668.72;2087613;28;20257;-74
2021/07/30 02:00:41;;;;;;;26.10;23.87;;;;;;;16.65;100.00;98662.59;2088547;28;20448;-74
2021/07/30 02:01:42;;;;;;;27.07;24.37;;;;;;;16.65;100.00;98671.47;2088522;28;20460;-74
2021/07/30 02:02:43;;;;;;;26.90;24.30;;;;;;;16.61;100.00;98664.44;2087807;28;20507;-75
2021/07/30 02:03:44;;;;;;;26.93;24.43;;;;;;;16.62;100.00;98674.84;2087830;28;20654;-75
2021/07/30 02:04:45;;;;;;;27.47;24.57;;;;;;;16.63;100.00;98678.31;2087815;28;20464;-75
2021/07/30 02:05:46;;;;;;;26.17;23.73;;;;;;;16.58;100.00;98671.28;2087922;28;20246;-75
2021/07/30 02:06:48;;;;;;;26.90;24.13;;;;;;;16.59;100.00;98666.66;2088621;28;20445;-74
2021/07/30 02:07:48;;;;;;;26.90;24.17;;;;;;;16.56;100.00;98673.53;2088005;28;20226;-75
2021/07/30 02:08:51;;;;;;;25.70;23.20;;;;;;;16.50;100.00;98666.03;2087976;28;20455;-75
2021/07/30 02:09:52;;;;;;;26.27;23.73;;;;;;;16.46;100.00;98660.56;2088265;28;20218;-74
2021/07/30 02:10:54;;;;;;;25.90;23.40;;;;;;;16.47;100.00;98669.44;2088743;28;21044;-75
2021/07/30 02:11:54;;;;;;;26.67;24.13;;;;;;;16.44;100.00;98668.22;2089328;28;20222;-74
2021/07/30 02:14:15;;;;;;;27.33;24.00;;;;;;;16.39;100.00;98658.47;2089424;28;20219;-74
2021/07/30 02:15:16;;;;;;;25.77;23.40;;;;;;;16.39;100.00;98663.06;2089493;28;20441;-74
2021/07/30 02:16:17;;;;;;;26.00;23.47;;;;;;;16.37;100.00;98666.09;2089465;28;20540;-75
2021/07/30 02:17:18;;;;;;;26.27;23.40;;;;;;;16.37;100.00;98659.94;2090174;28;20226;-75
2021/07/30 02:18:19;;;;;;;26.90;24.40;;;;;;;16.36;100.00;98663.75;2090332;28;20317;-75
2021/07/30 02:19:22;;;;;;;26.80;24.40;;;;;;;16.35;100.00;98662.97;2090293;28;20456;-75
2021/07/30 02:20:22;;;;;;;26.00;23.53;;;;;;;16.38;100.00;98664.97;2089781;28;20264;-73
2021/07/30 02:21:24;;;;;;;27.23;24.80;;;;;;;16.35;100.00;98662.19;2089325;28;20457;-74
2021/07/30 02:22:24;;;;;;;26.27;23.67;;;;;;;16.33;100.00;98669.81;2081369;28;20306;-74
2021/07/30 02:23:26;;;;;;;25.83;23.37;;;;;;;16.33;100.00;98667.94;2089490;28;20449;-75
2021/07/30 02:24:29;;;;;;;25.90;23.60;;;;;;;16.34;100.00;98664.13;2090198;28;20368;-74
2021/07/30 02:25:29;;;;;;;25.37;22.87;;;;;;;16.32;100.00;98660.19;2089414;28;20449;-75
2021/07/30 02:26:31;;;;;;;26.40;23.80;;;;;;;16.29;100.00;98663.56;2089537;28;20437;-75
2021/07/30 02:27:31;;;;;;;25.97;23.47;;;;;;;16.27;100.00;98655.06;2090167;28;20218;-74
2021/07/30 02:28:33;;;;;;;25.07;22.77;;;;;;;16.25;100.00;98655.41;2090164;28;20456;-74
2021/07/30 02:29:34;;;;;;;26.63;23.60;;;;;;;16.22;100.00;98660.69;2090134;28;20314;-74
2021/07/30 02:30:35;;;;;;;25.67;23.13;;;;;;;16.19;100.00;98659.47;2090133;28;20452;-74
2021/07/30 02:31:36;;;;;;;25.67;23.23;;;;;;;16.16;100.00;98662.03;2090151;28;20226;-75
2021/07/30 02:32:38;;;;;;;25.90;23.50;;;;;;;16.14;100.00;98661.59;2089795;28;20458;-74
2021/07/30 02:33:38;;;;;;;29.03;23.00;;;;;;;16.13;100.00;98655.44;2090094;28;20711;-74
2021/07/30 02:34:40;;;;;;;29.57;23.73;;;;;;;16.09;100.00;98659.94;2090150;28;20806;-74
2021/07/30 02:35:41;;;;;;;25.80;23.30;;;;;;;16.13;100.00;98660.03;2090050;28;20257;-74
2021/07/30 02:36:43;;;;;;;24.87;22.53;;;;;;;16.10;100.00;98656.13;2089888;28;20449;-75
2021/07/30 02:37:44;;;;;;;25.93;23.50;;;;;;;16.08;100.00;98650.31;2090034;28;20252;-74
2021/07/30 02:38:45;;;;;;;25.63;23.13;;;;;;;16.05;100.00;98651.75;2090042;28;20483;-74
2021/07/30 02:39:47;;;;;;;24.93;22.30;;;;;;;16.03;100.00;98656.72;2090013;28;20226;-74
2021/07/30 02:40:49;;;;;;;25.77;22.93;;;;;;;16.00;100.00;98659.31;2090066;28;20445;-74
2021/07/30 02:41:49;;;;;;;25.13;22.80;;;;;;;15.98;100.00;98658.84;2090053;28;20857;-75
2021/07/30 02:42:51;;;;;;;25.33;23.03;;;;;;;15.99;100.00;98658.53;2090058;28;20456;-75
2021/07/30 02:43:52;;;;;;;25.23;22.80;;;;;;;16.01;100.00;98658.19;2089644;28;20615;-74
2021/07/30 02:44:53;;;;;;;24.43;22.13;;;;;;;16.02;100.00;98659.75;2089099;28;20538;-74
2021/07/30 02:45:54;;;;;;;25.30;22.80;;;;;;;16.00;100.00;98660.09;2080796;28;20298;-75
2021/07/30 02:46:55;;;;;;;31.80;22.90;;;;;;;15.99;100.00;98655.06;2089164;28;20441;-74
2021/07/30 02:47:56;;;;;;;25.50;23.10;;;;;;;16.01;100.00;98658.19;2089170;28;20222;-75
2021/07/30 02:48:57;;;;;;;26.43;23.93;;;;;;;16.01;100.00;98656.28;2089177;28;20959;-75
2021/07/30 02:49:58;;;;;;;25.43;22.90;;;;;;;16.03;100.00;98658.63;2089980;28;20726;-74
2021/07/30 02:51:00;;;;;;;25.97;23.33;;;;;;;16.01;100.00;98655.50;2089933;28;20843;-74
2021/07/30 02:52:00;;;;;;;26.57;24.07;;;;;;;16.00;100.00;98659.31;2089302;28;20301;-75
2021/07/30 02:53:02;;;;;;;25.87;23.43;;;;;;;16.08;100.00;98653.78;2089211;28;20511;-74
2021/07/30 02:54:02;;;;;;;25.15;23.00;;;;;;;16.03;100.00;98642.47;2089114;28;20219;-74
2021/07/30 02:55:07;;;;;;;27.23;24.53;;;;;;;16.03;100.00;98651.31;2089336;28;20229;-74
2021/07/30 02:56:08;;;;;;;25.90;23.27;;;;;;;16.08;100.00;98650.31;2089589;28;20222;-74
2021/07/30 02:57:09;;;;;;;26.30;23.70;;;;;;;16.05;100.00;98649.06;2089382;28;20544;-74
2021/07/30 02:58:12;;;;;;;25.57;23.47;;;;;;;16.03;100.00;98647.84;2080887;28;20462;-74
2021/07/30 02:59:12;;;;;;;27.17;24.40;;;;;;;16.01;100.00;98652.81;2089095;28;20557;-74
2021/07/30 03:00:14;;;;;;;25.27;23.17;;;;;;;15.99;100.00;98653.16;2089276;28;20438;-74
2021/07/30 03:01:15;;;;;;;26.53;24.17;;;;;;;15.97;100.00;98657.28;2089084;28;20225;-75
2021/07/30 03:02:16;;;;;;;28.03;25.10;;;;;;;15.97;100.00;98651.91;2089280;28;21039;-74
2021/07/30 03:03:17;;;;;;;27.53;24.77;;;;;;;15.99;100.00;98649.66;2090031;28;20241;-75
2021/07/30 03:04:18;;;;;;;25.33;23.17;;;;;;;15.99;100.00;98657.75;2089071;28;20445;-75
2021/07/30 03:05:19;;;;;;;25.53;23.27;;;;;;;15.98;100.00;98653.47;2089184;28;20238;-74
2021/07/30 03:06:21;;;;;;;30.37;23.70;;;;;;;15.94;100.00;98649.91;2089841;28;20449;-75
2021/07/30 03:07:21;;;;;;;26.00;23.73;;;;;;;15.92;100.00;98652.16;2083182;28;20230;-72
2021/07/30 03:08:24;;;;;;;26.17;23.60;;;;;;;15.92;100.00;98657.53;2080734;28;20234;-73
2021/07/30 03:09:25;;;;;;;26.30;23.80;;;;;;;15.88;100.00;98653.94;2080898;28;20219;-74
2021/07/30 03:10:28;;;;;;;26.80;24.23;;;;;;;15.83;100.00;98649.59;2080756;28;20537;-74
2021/07/30 03:11:28;;;;;;;27.27;23.73;;;;;;;15.80;100.00;98656.44;2080794;28;20219;-74
2021/07/30 03:12:30;;;;;;;26.27;23.77;;;;;;;15.79;100.00;98657.56;2081442;28;20462;-74
2021/07/30 03:13:31;;;;;;;27.80;24.97;;;;;;;15.74;100.00;98654.34;2080753;28;20246;-74
2021/07/30 03:14:32;;;;;;;25.80;23.60;;;;;;;15.75;100.00;98656.69;2080900;28;20533;-74
2021/07/30 03:15:33;;;;;;;26.80;24.03;;;;;;;15.78;100.00;98657.91;2081564;28;20224;-74
2021/07/30 03:16:35;;;;;;;29.10;24.40;;;;;;;15.79;100.00;98662.94;2080714;28;20450;-74
2021/07/30 03:17:35;;;;;;;26.60;24.05;;;;;;;15.79;100.00;98657.56;2080782;28;20219;-74
2021/07/30 03:18:37;;;;;;;26.90;24.43;;;;;;;15.82;100.00;98659.59;2080785;28;20689;-74
2021/07/30 03:19:37;;;;;;;27.23;24.93;;;;;;;15.81;100.00;98658.00;2086709;28;20287;-74
2021/07/30 03:20:39;;;;;;;27.23;24.63;;;;;;;15.83;100.00;98654.97;2089025;28;20499;-74
2021/07/30 03:21:40;;;;;;;25.73;23.33;;;;;;;15.85;100.00;98649.25;2089731;28;20381;-74
2021/07/30 03:22:41;;;;;;;26.17;23.67;;;;;;;15.80;100.00;98648.34;2088724;28;20457;-74
2021/07/30 03:23:42;;;;;;;25.27;23.13;;;;;;;15.80;100.00;98659.13;2089729;28;20626;-75
2021/07/30 03:24:43;;;;;;;25.60;22.90;;;;;;;15.81;100.00;98649.94;2088883;28;20453;-74
2021/07/30 03:25:45;;;;;;;25.83;23.17;;;;;;;15.87;100.00;98663.91;2089009;28;20215;-74
2021/07/30 03:26:47;;;;;;;26.77;23.07;;;;;;;15.88;100.00;98656.63;2089587;28;20228;-74
2021/07/30 03:27:47;;;;;;;24.83;22.67;;;;;;;15.86;100.00;98658.88;2089614;28;20457;-74
2021/07/30 03:28:49;;;;;;;26.23;23.37;;;;;;;15.82;100.00;98656.88;2089606;28;20228;-74
2021/07/30 03:29:50;;;;;;;25.57;23.10;;;;;;;15.81;100.00;98666.09;2088811;28;20732;-74
2021/07/30 03:30:51;;;;;;;25.53;23.27;;;;;;;15.81;100.00;98655.31;2088867;28;20874;-75
2021/07/30 03:31:52;;;;;;;26.87;24.20;;;;;;;15.79;100.00;98662.94;2089291;28;20720;-74
2021/07/30 03:32:54;;;;;;;26.03;23.60;;;;;;;15.81;100.00;98659.91;2089617;28;20807;-74
2021/07/30 03:33:54;;;;;;;26.30;23.97;;;;;;;15.77;100.00;98654.44;2088801;28;20659;-74
2021/07/30 03:34:56;;;;;;;26.20;23.83;;;;;;;15.76;100.00;98660.94;2088871;28;20457;-75
2021/07/30 03:35:56;;;;;;;27.07;24.27;;;;;;;15.76;100.00;98658.25;2089708;28;24108;-74
2021/07/30 03:36:58;;;;;;;26.50;23.90;;;;;;;15.74;100.00;98655.13;2089367;28;20832;-74
2021/07/30 03:37:59;;;;;;;27.47;24.83;;;;;;;15.77;100.00;98657.13;2088704;28;20219;-75
2021/07/30 03:39:00;;;;;;;28.73;24.87;;;;;;;15.76;100.00;98663.63;2088869;28;20452;-74
2021/07/30 03:40:01;;;;;;;26.43;23.67;;;;;;;15.78;100.00;98655.22;2089658;28;20225;-75
2021/07/30 03:41:04;;;;;;;29.00;24.33;;;;;;;15.84;100.00;98653.84;2089694;28;20440;-74
2021/07/30 03:42:05;;;;;;;26.67;24.17;;;;;;;15.82;100.00;98667.66;2089454;28;20230;-74
2021/07/30 03:43:07;;;;;;;26.03;23.70;;;;;;;15.81;100.00;98659.91;2088692;28;20450;-74
2021/07/30 03:44:07;;;;;;;26.77;24.17;;;;;;;15.80;100.00;98659.13;2080138;28;20234;-74
2021/07/30 03:45:10;;;;;;;26.57;24.07;;;;;;;15.81;100.00;98651.81;2088851;28;20450;-74
2021/07/30 03:46:10;;;;;;;26.80;24.30;;;;;;;15.79;100.00;98657.56;2089511;28;20253;-74
2021/07/30 03:47:12;;;;;;;25.70;23.10;;;;;;;15.80;100.00;98658.34;2089681;28;20458;-74
2021/07/30 03:48:12;;;;;;;27.23;23.85;;;;;;;15.82;100.00;98656.88;2089580;28;20243;-74
2021/07/30 03:49:14;;;;;;;26.37;23.73;;;;;;;15.83;100.00;98658.44;2089597;28;20215;-74
2021/07/30 03:50:15;;;;;;;26.20;23.45;;;;;;;15.88;100.00;98656.63;2088652;28;20356;-74
2021/07/30 03:51:16;;;;;;;27.60;24.73;;;;;;;15.89;100.00;98655.50;2088919;28;20272;-74
2021/07/30 03:52:18;;;;;;;24.37;22.33;;;;;;;15.88;100.00;98653.94;2088537;28;20247;-74
2021/07/30 03:53:19;;;;;;;26.37;23.67;;;;;;;15.90;100.00;98660.56;2088704;28;20549;-75
2021/07/30 03:54:20;;;;;;;25.43;23.13;;;;;;;15.94;100.00;98660.66;2088806;28;20971;-74
2021/07/30 03:55:22;;;;;;;27.07;24.27;;;;;;;15.94;100.00;98663.34;2089523;28;20795;-74
2021/07/30 03:56:24;;;;;;;25.97;23.57;;;;;;;15.94;100.00;98656.06;2089131;28;20222;-73
2021/07/30 03:57:25;;;;;;;26.13;23.33;;;;;;;15.94;100.00;98653.38;2089417;28;20449;-74
2021/07/30 03:58:26;;;;;;;24.50;22.27;;;;;;;15.97;100.00;98663.44;2089420;28;20222;-74
2021/07/30 03:59:27;;;;;;;25.03;22.73;;;;;;;15.99;100.00;98663.13;2089368;28;20529;-74
2021/07/30 04:00:28;;;;;;;25.33;23.10;;;;;;;15.97;100.00;98654.59;2089372;28;20305;-74
2021/07/30 04:01:29;;;;;;;26.33;23.70;;;;;;;15.96;100.00;98659.19;2089310;28;20445;-74
2021/07/30 04:02:30;;;;;;;26.10;23.50;;;;;;;15.99;100.00;98660.44;2088604;28;20284;-75
2021/07/30 04:03:32;;;;;;;25.90;23.37;;;;;;;15.99;100.00;98666.59;2088651;28;20480;-74
2021/07/30 04:04:33;;;;;;;26.37;23.80;;;;;;;16.00;100.00;98660.09;2088559;28;20222;-75
2021/07/30 04:05:35;;;;;;;25.73;23.20;;;;;;;15.99;100.00;98663.91;2088641;28;21057;-74
2021/07/30 04:06:36;;;;;;;25.97;23.57;;;;;;;16.00;100.00;98662.00;2089311;28;20452;-73
2021/07/30 04:07:37;;;;;;;26.03;23.63;;;;;;;16.04;100.00;98662.88;2082383;28;20470;-73
2021/07/30 04:08:39;;;;;;;27.00;24.50;;;;;;;16.05;100.00;98664.44;2072079;28;20598;-73
2021/07/30 04:09:40;;;;;;;26.07;23.67;;;;;;;16.05;100.00;98664.44;2080308;28;20808;-74
2021/07/30 04:10:41;;;;;;;26.50;23.93;;;;;;;16.09;100.00;98666.13;2080358;28;20509;-74
2021/07/30 04:11:45;;;;;;;26.00;23.07;;;;;;;16.11;100.00;98671.94;2080254;28;20518;-73
2021/07/30 04:12:45;;;;;;;26.60;24.10;;;;;;;16.21;100.00;98664.50;2080268;28;20223;-74
2021/07/30 04:13:47;;;;;;;27.90;24.53;;;;;;;16.23;100.00;98662.22;2080358;28;20526;-74
2021/07/30 04:14:47;;;;;;;25.43;23.23;;;;;;;16.21;100.00;98662.59;2080314;28;20222;-74
2021/07/30 04:15:49;;;;;;;27.17;24.53;;;;;;;16.18;100.00;98655.19;2080360;28;20450;-73
2021/07/30 04:16:49;;;;;;;27.40;24.67;;;;;;;16.20;100.00;98655.63;2081058;28;20215;-74
2021/07/30 04:17:52;;;;;;;27.00;24.37;;;;;;;16.19;100.00;98664.06;2080993;28;20442;-74
2021/07/30 04:18:53;;;;;;;27.67;24.73;;;;;;;16.18;100.00;98652.50;2087073;28;20310;-73
2021/07/30 04:19:55;;;;;;;27.80;24.80;;;;;;;16.20;100.00;98663.72;2089213;28;20449;-74
2021/07/30 04:20:55;;;;;;;27.53;24.77;;;;;;;16.21;100.00;98661.81;2089123;28;20218;-73
2021/07/30 04:21:57;;;;;;;27.67;25.00;;;;;;;16.24;100.00;98661.88;2089119;28;20450;-74
2021/07/30 04:22:58;;;;;;;27.23;24.63;;;;;;;16.26;100.00;98664.25;2089300;28;20238;-74
2021/07/30 04:24:00;;;;;;;27.20;24.67;;;;;;;16.34;100.00;98669.50;2089242;28;20448;-73
2021/07/30 04:25:00;;;;;;;27.03;24.40;;;;;;;16.36;100.00;98667.25;2088724;28;20219;-74
2021/07/30 04:26:02;;;;;;;27.00;24.30;;;;;;;16.35;100.00;98662.97;2088586;28;20446;-74
2021/07/30 04:27:05;;;;;;;26.63;23.93;;;;;;;16.37;100.00;98660.72;2089245;28;20226;-74
2021/07/30 04:28:06;;;;;;;26.63;23.87;;;;;;;16.40;100.00;98668.09;2088448;28;20449;-74
2021/07/30 04:29:07;;;;;;;26.80;24.07;;;;;;;16.43;100.00;98660.50;2088101;28;20464;-73
2021/07/30 04:30:09;;;;;;;25.87;23.47;;;;;;;16.45;100.00;98667.09;2089222;28;20485;-73
2021/07/30 04:31:10;;;;;;;26.37;23.83;;;;;;;16.46;100.00;98668.66;2089159;28;20218;-74
2021/07/30 04:32:12;;;;;;;25.17;22.83;;;;;;;16.48;100.00;98665.59;2089165;28;20453;-74
2021/07/30 04:33:13;;;;;;;25.63;22.83;;;;;;;16.50;100.00;98666.03;2089189;28;20692;-73
2021/07/30 04:34:15;;;;;;;26.13;23.23;;;;;;;16.52;100.00;98661.13;2089152;28;20853;-74
2021/07/30 04:35:15;;;;;;;25.27;23.17;;;;;;;16.54;100.00;98664.25;2088541;28;20254;-74
2021/07/30 04:36:17;;;;;;;26.17;23.47;;;;;;;16.53;100.00;98652.69;2088459;28;20445;-74
2021/07/30 04:37:18;;;;;;;28.53;24.60;;;;;;;16.58;100.00;98665.09;2088888;28;20578;-74
2021/07/30 04:38:19;;;;;;;26.77;24.07;;;;;;;16.59;100.00;98658.59;2089104;28;20536;-74
2021/07/30 04:39:20;;;;;;;25.87;23.17;;;;;;;16.62;100.00;98668.69;2089059;28;20233;-74
2021/07/30 04:40:22;;;;;;;26.07;23.67;;;;;;;16.62;100.00;98671.38;2088324;28;20449;-74